Airfield :
LOGIN :

Register | Disclaimer

   EN    FR    IT 

 










Legend :    VFR   Marginal VFR   IFR   Intensive IFR   Very Intensive IFR
Visi :
Ceiling :
>= 8 km
>= 3000ft
5 to 8 km
1000 to 3000 ft
1500m to 5 km
500 to 1000 ft
800 to 1500m
200 to 500 ft
< 800m
< 200 ft
Symbols :   Thunderstorms  Fog  Heavy snow  Heavy precipitations  Wind > 20 kt
SIGMETs :     Misc.  Thunderstorms  Icing  Turbulence  Mountain Waves  Volcanic Ashes







- Airport Elevation : 242 ft
- IATA code : DUB


EIDW - Dublin

CURRENT METAR :
  • 210800Z 22006KT 190V250 9999 FEW015 BKN190 01/M01 Q1022 R10/090095 R16/090095 NOSIG

EXPIRED METARs :
  • 210730Z 23004KT 200V270 9999 FEW015 SCT190 02/M01 Q1022 R10/090095 R16/090095 NOSIG
  • 210700Z 25005KT 9999 FEW015 SCT190 02/M00 Q1023 R10/090095 R16/090095 NOSIG
  • 210630Z 25006KT 210V280 9999 FEW015 SCT190 02/M00 Q1023 R10/090095 R16/090095 NOSIG
  • 210600Z 24006KT 200V270 9999 FEW015 SCT190 02/M00 Q1023 NOSIG
  • 210530Z 25007KT 9999 FEW015 01/M00 Q1024 NOSIG

TAF TAF EIDW
Valid from the 21 at 06:00 until the 22 at 06:00 UTC


210500Z 2106/2206 25006KT 9999 FEW015 SCT030
BECMG 2106/2108 21008KT
BECMG 2109/2111 20013KT
BECMG 2111/2113 20014G25KT
BECMG 2113/2115 20018G30KT
TEMPO 2115/2118 7000 -RA BKN012
BECMG 2117/2119 27018G30KT
BECMG 2119/2121 25015KT
TEMPO 2121/2202 26016G27KT
BECMG 2202/2205 22012KT
No reported NOTAMs for that airfield.
1 SIGMET reported for the Shannon FIR (EISN) :
 
Severe mountain waves
EISN SIGMET 01 VALID 210700/211100 EINN
EISN SHANNON FIR SEV MTW FCST WI N5445 W00900 - N5130 W00900 - N5130 W01030 - N5430 W01030 - N5434 W01000 - N5445 W00900 FL060/230 MOV E 18KT NC=



MET'MAP, your aeronautical weather chart ! - Copyright ORBIFLY December 2007 - Disclaimer

ORBIFLY MET'MAP TEAM :

Programming & Development : Alexandra Zaïnal
Concept & Development : Baudouin d'Aumeries
Co-Development & Prog : Marc-Olivier Méhu
Technical & hardware support : Manuel Goepfert

Contact : metmap@orbifly.com




SOURCES & CREDITS :

   NOAA